createdAt,value
2023-02-14T00:00:49.678Z,4.00
2023-02-14T00:03:16.474Z,4.00
2023-02-14T00:05:43.234Z,4.00
2023-02-14T00:08:09.947Z,3.90
2023-02-14T00:10:36.872Z,3.90
2023-02-14T00:13:04.030Z,3.90
2023-02-14T00:15:30.812Z,3.80
2023-02-14T00:18:00.707Z,3.80
2023-02-14T00:20:28.698Z,3.80
2023-02-14T00:22:55.445Z,3.80
2023-02-14T00:25:22.166Z,3.70
2023-02-14T00:27:48.944Z,3.70
2023-02-14T00:30:15.822Z,3.70
2023-02-14T00:32:43.228Z,3.70
2023-02-14T00:35:10.824Z,3.70
2023-02-14T00:37:37.646Z,3.60
2023-02-14T00:40:07.696Z,3.60
2023-02-14T00:42:34.982Z,3.60
2023-02-14T00:45:01.800Z,3.60
2023-02-14T00:47:28.571Z,3.50
2023-02-14T00:49:55.412Z,3.50
2023-02-14T00:52:22.209Z,3.50
2023-02-14T00:54:48.906Z,3.50
2023-02-14T00:57:15.616Z,3.40
2023-02-14T00:59:42.286Z,3.40
2023-02-14T01:02:09.061Z,3.40
2023-02-14T01:04:35.846Z,3.30
2023-02-14T01:07:02.530Z,3.30
2023-02-14T01:09:29.239Z,3.30
2023-02-14T01:11:55.914Z,3.30
2023-02-14T01:14:22.690Z,3.30
2023-02-14T01:16:49.396Z,3.20
2023-02-14T01:19:16.221Z,3.20
2023-02-14T01:21:42.961Z,3.20
2023-02-14T01:24:10.495Z,3.20
2023-02-14T01:26:37.405Z,3.20
2023-02-14T01:29:05.296Z,3.10
2023-02-14T01:31:34.313Z,3.10
2023-02-14T01:34:01.648Z,3.10
2023-02-14T01:36:31.760Z,3.10
2023-02-14T01:39:02.300Z,3.10
2023-02-14T01:41:31.991Z,3.10
2023-02-14T01:43:58.673Z,3.00
2023-02-14T01:46:28.063Z,3.00
2023-02-14T01:49:12.087Z,3.00
2023-02-14T01:51:42.927Z,3.00
2023-02-14T01:54:10.753Z,3.00
2023-02-14T01:56:43.886Z,3.00
2023-02-14T01:59:14.550Z,3.00
2023-02-14T02:01:42.321Z,2.90
2023-02-14T02:04:14.748Z,2.90
2023-02-14T02:06:49.507Z,2.90
2023-02-14T02:09:22.183Z,2.90
2023-02-14T02:11:49.115Z,2.90
2023-02-14T02:14:19.286Z,2.80
2023-02-14T02:16:52.292Z,2.80
2023-02-14T02:19:21.938Z,2.80
2023-02-14T02:22:26.292Z,2.80
2023-02-14T02:25:34.709Z,2.80
2023-02-14T02:28:04.410Z,2.80
2023-02-14T02:31:07.982Z,2.70
2023-02-14T02:33:34.727Z,2.70
2023-02-14T02:36:09.894Z,2.70
2023-02-14T02:38:57.349Z,2.70
2023-02-14T02:41:33.069Z,2.70
2023-02-14T02:44:38.405Z,2.70
2023-02-14T02:47:07.398Z,2.60
2023-02-14T02:50:22.068Z,2.60
2023-02-14T02:53:03.518Z,2.60
2023-02-14T02:56:08.815Z,2.60
2023-02-14T02:59:00.897Z,2.60
2023-02-14T03:01:34.377Z,2.60
2023-02-14T03:04:25.553Z,2.50
2023-02-14T03:06:52.676Z,2.50
2023-02-14T03:09:19.332Z,2.50
2023-02-14T03:12:07.349Z,2.50
2023-02-14T03:14:40.528Z,2.50
2023-02-14T03:17:17.617Z,2.50
2023-02-14T03:20:09.122Z,2.50
2023-02-14T03:23:17.299Z,2.50
2023-02-14T03:26:07.338Z,2.50
2023-02-14T03:28:50.392Z,2.50
2023-02-14T03:31:41.988Z,2.40
2023-02-14T03:34:22.980Z,2.40
2023-02-14T03:37:03.294Z,2.40
2023-02-14T03:39:44.505Z,2.40
2023-02-14T03:42:32.022Z,2.40
2023-02-14T03:45:01.128Z,2.40
2023-02-14T03:47:32.978Z,2.40
2023-02-14T03:50:10.738Z,2.30
2023-02-14T03:52:39.662Z,2.30
2023-02-14T03:55:08.617Z,2.30
2023-02-14T03:57:58.694Z,2.30
2023-02-14T04:00:26.857Z,2.30
2023-02-14T04:02:56.004Z,2.30
2023-02-14T04:05:26.562Z,2.30
2023-02-14T04:07:55.775Z,2.30
2023-02-14T04:10:23.236Z,2.30
2023-02-14T04:12:50.790Z,2.30
2023-02-14T04:15:18.282Z,2.20
2023-02-14T04:18:03.462Z,2.20
2023-02-14T04:20:30.432Z,2.20
2023-02-14T04:22:57.641Z,2.20
2023-02-14T04:25:24.422Z,2.20
2023-02-14T04:27:51.190Z,2.20
2023-02-14T04:30:18.347Z,2.20
2023-02-14T04:32:45.102Z,2.20
2023-02-14T04:35:12.093Z,2.10
2023-02-14T04:37:39.302Z,2.20
2023-02-14T04:40:06.709Z,2.20
2023-02-14T04:42:33.461Z,2.20
2023-02-14T04:45:01.418Z,2.20
2023-02-14T04:47:29.883Z,2.20
2023-02-14T04:49:56.613Z,2.10
2023-02-14T04:52:23.288Z,2.10
2023-02-14T04:54:50.008Z,2.10
2023-02-14T04:57:16.707Z,2.10
2023-02-14T04:59:43.445Z,2.10
2023-02-14T05:02:10.340Z,2.10
2023-02-14T05:04:37.346Z,2.20
2023-02-14T05:07:04.098Z,2.20
2023-02-14T05:09:30.803Z,2.10
2023-02-14T05:11:57.589Z,2.20
2023-02-14T05:14:24.343Z,2.20
2023-02-14T05:16:51.042Z,2.20
2023-02-14T05:19:17.821Z,2.20
2023-02-14T05:21:44.545Z,2.20
2023-02-14T05:24:11.273Z,2.20
2023-02-14T05:26:37.988Z,2.20
2023-02-14T05:29:04.869Z,2.20
2023-02-14T05:31:31.699Z,2.20
2023-02-14T05:33:58.515Z,2.20
2023-02-14T05:36:25.332Z,2.20
2023-02-14T05:38:52.306Z,2.20
2023-02-14T05:41:19.041Z,2.20
2023-02-14T05:43:46.793Z,2.20
2023-02-14T05:46:13.660Z,2.20
2023-02-14T05:48:40.460Z,2.20
2023-02-14T05:51:09.929Z,2.20
2023-02-14T05:53:37.394Z,2.20
2023-02-14T05:56:04.424Z,2.20
2023-02-14T05:58:31.663Z,2.20
2023-02-14T06:00:59.181Z,2.20
2023-02-14T06:03:26.228Z,2.20
2023-02-14T06:05:53.082Z,2.20
2023-02-14T06:08:19.793Z,2.20
2023-02-14T06:10:46.765Z,2.20
2023-02-14T06:13:13.611Z,2.20
2023-02-14T06:15:40.811Z,2.20
2023-02-14T06:18:07.815Z,2.20
2023-02-14T06:20:34.644Z,2.30
2023-02-14T06:23:01.883Z,2.20
2023-02-14T06:25:28.628Z,2.20
2023-02-14T06:27:59.362Z,2.20
2023-02-14T06:30:26.365Z,2.20
2023-02-14T06:32:53.246Z,2.20
2023-02-14T06:35:20.137Z,2.20
2023-02-14T06:37:47.247Z,2.20
2023-02-14T06:40:14.699Z,2.20
2023-02-14T06:42:41.580Z,2.20
2023-02-14T06:45:08.932Z,2.20
2023-02-14T06:47:35.689Z,2.20
2023-02-14T06:50:05.039Z,2.20
2023-02-14T06:52:33.251Z,2.20
2023-02-14T06:55:00.040Z,2.20
2023-02-14T06:57:26.837Z,2.20
2023-02-14T06:59:53.754Z,2.20
2023-02-14T07:02:22.872Z,2.20
2023-02-14T07:04:51.124Z,2.20
2023-02-14T07:07:17.839Z,2.20
2023-02-14T07:09:44.738Z,2.20
2023-02-14T07:12:11.513Z,2.20
2023-02-14T07:14:38.310Z,2.20
2023-02-14T07:17:05.122Z,2.20
2023-02-14T07:19:31.884Z,2.20
2023-02-14T07:21:58.632Z,2.20
2023-02-14T07:24:25.436Z,2.20
2023-02-14T07:26:52.184Z,2.20
2023-02-14T07:29:18.970Z,2.20
2023-02-14T07:31:45.942Z,2.20
2023-02-14T07:34:12.835Z,2.20
2023-02-14T07:36:39.584Z,2.20
2023-02-14T07:39:06.319Z,2.20
2023-02-14T07:41:33.139Z,2.20
2023-02-14T07:43:59.853Z,2.20
2023-02-14T07:46:26.651Z,2.30
2023-02-14T07:48:53.689Z,2.30
2023-02-14T07:51:20.500Z,2.30
2023-02-14T07:53:47.389Z,2.30
2023-02-14T07:56:14.319Z,2.40
2023-02-14T07:58:41.155Z,2.40
2023-02-14T08:01:07.974Z,2.40
2023-02-14T08:03:34.857Z,2.40
2023-02-14T08:06:01.643Z,2.50
2023-02-14T08:08:30.014Z,2.50
2023-02-14T08:10:57.320Z,2.50
2023-02-14T08:13:24.578Z,2.60
2023-02-14T08:16:07.331Z,2.70
2023-02-14T08:18:40.085Z,2.70
2023-02-14T08:21:09.902Z,2.70
2023-02-14T08:23:37.321Z,2.80
2023-02-14T08:26:04.386Z,2.90
2023-02-14T08:28:33.164Z,2.90
2023-02-14T08:31:00.593Z,2.90
2023-02-14T08:33:27.970Z,3.00
2023-02-14T08:35:54.829Z,3.10
2023-02-14T08:38:21.818Z,3.20
2023-02-14T08:40:48.605Z,3.20
2023-02-14T08:43:15.758Z,3.30
2023-02-14T08:45:42.613Z,3.40
2023-02-14T08:48:11.525Z,3.40
2023-02-14T08:50:39.690Z,3.50
2023-02-14T08:53:11.707Z,3.60
2023-02-14T08:55:39.124Z,3.70
2023-02-14T08:58:07.164Z,3.80
2023-02-14T09:00:34.681Z,3.90
2023-02-14T09:03:01.447Z,4.00
2023-02-14T09:05:28.392Z,4.10
2023-02-14T09:07:58.455Z,4.30
2023-02-14T09:10:25.763Z,4.40
2023-02-14T09:12:52.705Z,4.50
2023-02-14T09:15:19.806Z,4.60
2023-02-14T09:17:47.379Z,4.70
2023-02-14T09:20:15.423Z,4.80
2023-02-14T09:22:42.365Z,4.90
2023-02-14T09:25:09.792Z,5.00
2023-02-14T09:27:37.028Z,5.10
2023-02-14T09:30:05.855Z,5.30
2023-02-14T09:32:32.835Z,5.30
2023-02-14T09:35:00.192Z,5.40
2023-02-14T09:37:45.603Z,5.50
2023-02-14T09:40:19.216Z,5.70
2023-02-14T09:42:51.110Z,5.80
2023-02-14T09:45:25.278Z,5.90
2023-02-14T09:47:55.341Z,6.00
2023-02-14T09:50:34.725Z,6.10
2023-02-14T09:53:23.693Z,6.10
2023-02-14T09:56:12.284Z,6.20
2023-02-14T09:59:01.943Z,6.40
2023-02-14T10:01:36.595Z,6.40
2023-02-14T10:04:17.980Z,6.50
2023-02-14T10:06:52.872Z,6.60
2023-02-14T10:09:42.908Z,6.70
2023-02-14T10:12:36.625Z,6.80
2023-02-14T10:15:27.559Z,7.00
2023-02-14T10:17:54.246Z,7.10
2023-02-14T10:20:45.855Z,7.20
2023-02-14T10:23:35.789Z,7.30
2023-02-14T10:26:34.004Z,7.40
2023-02-14T10:29:01.976Z,7.50
2023-02-14T10:31:55.536Z,7.60
2023-02-14T10:34:41.729Z,7.70
2023-02-14T10:37:27.022Z,7.70
2023-02-14T10:40:31.600Z,7.90
2023-02-14T10:43:12.884Z,8.00
2023-02-14T10:45:55.388Z,8.10
2023-02-14T10:48:24.856Z,8.20
2023-02-14T10:51:12.545Z,8.20
2023-02-14T10:54:17.808Z,8.30
2023-02-14T10:56:50.733Z,8.40
2023-02-14T10:59:29.043Z,8.50
2023-02-14T11:01:58.872Z,8.60
2023-02-14T11:04:26.157Z,8.70
2023-02-14T11:06:52.952Z,8.80
2023-02-14T11:09:20.095Z,8.90
2023-02-14T11:11:58.623Z,8.90
2023-02-14T11:14:33.054Z,9.00
2023-02-14T11:17:01.062Z,9.10
2023-02-14T11:19:36.910Z,9.20
2023-02-14T11:22:04.596Z,9.20
2023-02-14T11:24:39.351Z,9.30
2023-02-14T11:27:12.177Z,9.40
2023-02-14T11:29:38.892Z,9.40
2023-02-14T11:32:12.943Z,9.50
2023-02-14T11:35:02.610Z,9.60
2023-02-14T11:37:38.173Z,9.60
2023-02-14T11:40:06.744Z,9.70
2023-02-14T11:42:40.213Z,9.80
2023-02-14T11:45:07.484Z,9.80
2023-02-14T11:47:41.514Z,9.90
2023-02-14T11:50:24.733Z,10.00
2023-02-14T11:52:54.497Z,10.00
2023-02-14T11:55:33.794Z,10.10
2023-02-14T11:58:03.148Z,10.10
2023-02-14T12:00:31.452Z,10.20
2023-02-14T12:03:00.751Z,10.20
2023-02-14T12:06:00.542Z,10.30
2023-02-14T12:08:31.642Z,10.30
2023-02-14T12:11:03.622Z,10.40
2023-02-14T12:13:30.764Z,10.40
2023-02-14T12:15:58.807Z,10.50
2023-02-14T12:19:00.698Z,10.50
2023-02-14T12:21:56.853Z,10.60
2023-02-14T12:24:36.419Z,10.70
2023-02-14T12:27:24.249Z,10.70
2023-02-14T12:30:11.876Z,10.80
2023-02-14T12:32:46.712Z,10.80
2023-02-14T12:35:15.680Z,10.90
2023-02-14T12:38:08.956Z,11.00
2023-02-14T12:40:54.324Z,11.00
2023-02-14T12:43:39.068Z,11.10
2023-02-14T12:46:17.606Z,11.10
2023-02-14T12:49:05.640Z,11.20
2023-02-14T12:51:50.494Z,11.20
2023-02-14T12:54:42.081Z,11.30
2023-02-14T12:57:37.691Z,11.30
2023-02-14T13:00:56.590Z,11.40
2023-02-14T13:03:48.968Z,11.40
2023-02-14T13:06:29.289Z,11.50
2023-02-14T13:09:04.745Z,11.50
2023-02-14T13:11:49.351Z,11.60
2023-02-14T13:14:45.502Z,11.60
2023-02-14T13:17:29.635Z,11.60
2023-02-14T13:20:31.094Z,11.70
2023-02-14T13:23:04.085Z,11.70
2023-02-14T13:25:39.158Z,11.80
2023-02-14T13:28:11.820Z,11.80
2023-02-14T13:30:38.818Z,11.90
2023-02-14T13:33:33.529Z,11.90
2023-02-14T13:36:04.056Z,12.00
2023-02-14T13:38:31.954Z,12.10
2023-02-14T13:41:00.883Z,12.10
2023-02-14T13:43:56.214Z,12.10
2023-02-14T13:46:32.083Z,12.20
2023-02-14T13:49:01.571Z,12.20
2023-02-14T13:51:48.259Z,12.30
2023-02-14T13:54:28.078Z,12.30
2023-02-14T13:56:55.274Z,12.40
2023-02-14T14:00:08.401Z,12.40
2023-02-14T14:02:50.451Z,12.40
2023-02-14T14:05:40.475Z,12.40
2023-02-14T14:08:22.527Z,12.50
2023-02-14T14:10:53.015Z,12.50
2023-02-14T14:13:41.570Z,12.50
2023-02-14T14:16:27.444Z,12.60
2023-02-14T14:19:01.857Z,12.60
2023-02-14T14:21:39.962Z,12.60
2023-02-14T14:24:15.279Z,12.60
2023-02-14T14:26:49.395Z,12.70
2023-02-14T14:29:22.683Z,12.70
2023-02-14T14:31:55.437Z,12.70
2023-02-14T14:34:28.291Z,12.70
2023-02-14T14:37:05.090Z,12.70
2023-02-14T14:39:34.476Z,12.70
2023-02-14T14:42:15.395Z,12.80
2023-02-14T14:45:03.368Z,12.80
2023-02-14T14:47:43.899Z,12.80
2023-02-14T14:50:18.519Z,12.80
2023-02-14T14:52:50.991Z,12.80
2023-02-14T14:55:24.126Z,12.90
2023-02-14T14:58:05.156Z,12.90
2023-02-14T15:00:37.153Z,12.90
2023-02-14T15:03:25.329Z,12.90
2023-02-14T15:06:02.237Z,13.00
2023-02-14T15:08:31.259Z,13.00
2023-02-14T15:10:57.998Z,13.10
2023-02-14T15:13:57.526Z,13.10
2023-02-14T15:16:41.803Z,13.20
2023-02-14T15:19:22.361Z,13.20
2023-02-14T15:21:50.371Z,13.40
2023-02-14T15:24:19.312Z,13.60
2023-02-14T15:26:48.868Z,13.90
2023-02-14T15:29:25.169Z,14.00
2023-02-14T15:31:53.192Z,14.20
2023-02-14T15:34:26.754Z,14.30
2023-02-14T15:36:59.117Z,14.40
2023-02-14T15:39:44.509Z,14.40
2023-02-14T15:42:31.623Z,14.40
2023-02-14T15:45:29.049Z,14.40
2023-02-14T15:47:59.999Z,14.40
2023-02-14T15:50:35.271Z,14.30
2023-02-14T15:53:28.032Z,14.20
2023-02-14T15:56:01.248Z,14.10
2023-02-14T15:58:32.287Z,14.00
2023-02-14T16:00:59.958Z,13.90
2023-02-14T16:03:30.735Z,13.80
2023-02-14T16:05:57.607Z,13.70
2023-02-14T16:08:34.882Z,13.70
2023-02-14T16:11:20.371Z,13.60
2023-02-14T16:13:47.253Z,13.50
2023-02-14T16:16:15.407Z,13.40
2023-02-14T16:18:48.193Z,13.40
2023-02-14T16:21:20.261Z,13.30
2023-02-14T16:24:07.227Z,13.20
2023-02-14T16:26:36.119Z,13.10
2023-02-14T16:29:04.160Z,13.00
2023-02-14T16:31:31.915Z,12.90
2023-02-14T16:33:58.917Z,12.80
2023-02-14T16:36:33.960Z,12.70
2023-02-14T16:39:07.190Z,12.60
2023-02-14T16:41:34.868Z,12.50
2023-02-14T16:44:01.608Z,12.30
2023-02-14T16:46:32.912Z,12.20
2023-02-14T16:48:59.772Z,12.10
2023-02-14T16:51:29.384Z,12.00
2023-02-14T16:53:59.351Z,11.90
2023-02-14T16:56:26.025Z,11.70
2023-02-14T16:58:52.890Z,11.60
2023-02-14T17:01:19.586Z,11.50
2023-02-14T17:03:46.304Z,11.40
2023-02-14T17:06:16.979Z,11.30
2023-02-14T17:08:44.745Z,11.20
2023-02-14T17:11:11.734Z,11.00
2023-02-14T17:13:42.126Z,10.90
2023-02-14T17:16:11.838Z,10.90
2023-02-14T17:18:41.533Z,10.70
2023-02-14T17:21:08.306Z,10.60
2023-02-14T17:23:35.077Z,10.50
2023-02-14T17:26:02.080Z,10.40
2023-02-14T17:28:28.866Z,10.30
2023-02-14T17:30:55.652Z,10.20
2023-02-14T17:33:22.968Z,10.10
2023-02-14T17:35:50.942Z,10.00
2023-02-14T17:38:18.656Z,9.90
2023-02-14T17:40:45.457Z,9.80
2023-02-14T17:43:12.135Z,9.70
2023-02-14T17:45:38.887Z,9.70
2023-02-14T17:48:05.833Z,9.60
2023-02-14T17:50:32.556Z,9.50
2023-02-14T17:52:59.289Z,9.40
2023-02-14T17:55:26.003Z,9.30
2023-02-14T17:57:52.843Z,9.20
2023-02-14T18:00:21.623Z,9.10
2023-02-14T18:02:49.221Z,9.00
2023-02-14T18:05:16.968Z,8.90
2023-02-14T18:07:43.946Z,8.80
2023-02-14T18:10:11.228Z,8.70
2023-02-14T18:12:38.175Z,8.60
2023-02-14T18:15:05.915Z,8.50
2023-02-14T18:17:32.669Z,8.50
2023-02-14T18:19:59.383Z,8.40
2023-02-14T18:22:28.291Z,8.30
2023-02-14T18:24:58.706Z,8.20
2023-02-14T18:27:26.236Z,8.20
2023-02-14T18:29:52.973Z,8.10
2023-02-14T18:32:19.911Z,8.00
2023-02-14T18:34:46.612Z,8.00
2023-02-14T18:37:14.511Z,7.90
2023-02-14T18:39:41.315Z,7.80
2023-02-14T18:42:08.170Z,7.70
2023-02-14T18:44:34.954Z,7.70
2023-02-14T18:47:02.674Z,7.60
2023-02-14T18:49:29.580Z,7.50
2023-02-14T18:51:58.441Z,7.40
2023-02-14T18:54:25.188Z,7.40
2023-02-14T18:56:51.903Z,7.30
2023-02-14T18:59:18.809Z,7.20
2023-02-14T19:01:45.786Z,7.10
2023-02-14T19:04:13.436Z,7.10
2023-02-14T19:06:42.130Z,7.00
2023-02-14T19:09:14.226Z,7.00
2023-02-14T19:11:41.410Z,6.90
2023-02-14T19:14:10.357Z,6.90
2023-02-14T19:16:50.439Z,6.80
2023-02-14T19:19:17.922Z,6.80
2023-02-14T19:21:44.748Z,6.70
2023-02-14T19:24:12.393Z,6.60
2023-02-14T19:26:40.619Z,6.60
2023-02-14T19:29:13.147Z,6.50
2023-02-14T19:31:43.402Z,6.50
2023-02-14T19:34:17.470Z,6.40
2023-02-14T19:36:44.605Z,6.40
2023-02-14T19:39:12.631Z,6.30
2023-02-14T19:41:39.900Z,6.30
2023-02-14T19:44:09.324Z,6.20
2023-02-14T19:46:38.159Z,6.20
2023-02-14T19:49:05.023Z,6.20
2023-02-14T19:51:34.572Z,6.10
2023-02-14T19:54:03.430Z,6.10
2023-02-14T19:56:33.142Z,6.00
2023-02-14T19:58:59.955Z,6.00
2023-02-14T20:01:26.784Z,6.00
2023-02-14T20:03:53.937Z,6.00
2023-02-14T20:06:22.704Z,5.90
2023-02-14T20:08:50.451Z,5.90
2023-02-14T20:11:49.539Z,5.90
2023-02-14T20:14:25.335Z,5.80
2023-02-14T20:16:53.762Z,5.80
2023-02-14T20:19:24.142Z,5.70
2023-02-14T20:21:50.973Z,5.70
2023-02-14T20:24:29.207Z,5.70
2023-02-14T20:26:57.518Z,5.60
2023-02-14T20:29:26.464Z,5.60
2023-02-14T20:31:55.625Z,5.60
2023-02-14T20:34:22.393Z,5.50
2023-02-14T20:36:52.936Z,5.50
2023-02-14T20:39:21.722Z,5.40
2023-02-14T20:41:51.779Z,5.40
2023-02-14T20:44:21.304Z,5.40
2023-02-14T20:46:53.474Z,5.40
2023-02-14T20:49:21.486Z,5.30
2023-02-14T20:51:51.609Z,5.30
2023-02-14T20:54:20.388Z,5.30
2023-02-14T20:56:47.956Z,5.20
2023-02-14T20:59:15.130Z,5.20
2023-02-14T21:01:42.537Z,5.10
2023-02-14T21:04:09.324Z,5.10
2023-02-14T21:06:38.941Z,5.10
2023-02-14T21:09:06.748Z,5.00
2023-02-14T21:11:33.484Z,5.00
2023-02-14T21:14:01.875Z,5.00
2023-02-14T21:16:29.739Z,4.90
2023-02-14T21:19:00.957Z,4.90
2023-02-14T21:21:38.813Z,4.90
2023-02-14T21:24:11.584Z,4.80
2023-02-14T21:26:38.923Z,4.80
2023-02-14T21:29:06.361Z,4.80
2023-02-14T21:31:33.593Z,4.70
2023-02-14T21:34:01.755Z,4.70
2023-02-14T21:36:31.591Z,4.60
2023-02-14T21:38:59.418Z,4.60
2023-02-14T21:41:28.962Z,4.60
2023-02-14T21:43:56.463Z,4.50
2023-02-14T21:46:30.832Z,4.50
2023-02-14T21:49:17.758Z,4.50
2023-02-14T21:51:45.033Z,4.40
2023-02-14T21:54:12.174Z,4.40
2023-02-14T21:56:39.956Z,4.30
2023-02-14T21:59:07.162Z,4.30
2023-02-14T22:01:38.194Z,4.30
2023-02-14T22:04:09.955Z,4.30
2023-02-14T22:06:39.840Z,4.20
2023-02-14T22:09:07.425Z,4.20
2023-02-14T22:11:34.625Z,4.20
2023-02-14T22:14:01.400Z,4.10
2023-02-14T22:16:28.412Z,4.10
2023-02-14T22:18:55.195Z,4.10
2023-02-14T22:21:26.676Z,4.00
2023-02-14T22:23:54.734Z,4.00
2023-02-14T22:26:27.160Z,4.00
2023-02-14T22:28:59.380Z,4.00
2023-02-14T22:31:28.766Z,4.00
2023-02-14T22:33:55.663Z,3.90
2023-02-14T22:36:22.432Z,3.90
2023-02-14T22:38:49.203Z,3.90
2023-02-14T22:41:21.380Z,3.80
2023-02-14T22:43:49.107Z,3.80
2023-02-14T22:46:21.726Z,3.80
2023-02-14T22:48:50.058Z,3.70
2023-02-14T22:51:37.578Z,3.70
2023-02-14T22:54:07.221Z,3.70
2023-02-14T22:56:42.838Z,3.70
2023-02-14T22:59:23.765Z,3.70
2023-02-14T23:01:51.813Z,3.60
2023-02-14T23:04:21.570Z,3.60
2023-02-14T23:06:48.763Z,3.60
2023-02-14T23:09:16.306Z,3.60
2023-02-14T23:11:44.060Z,3.60
2023-02-14T23:14:33.480Z,3.50
2023-02-14T23:17:19.508Z,3.50
2023-02-14T23:20:05.581Z,3.50
2023-02-14T23:22:34.100Z,3.50
2023-02-14T23:25:04.066Z,3.50
2023-02-14T23:27:33.985Z,3.50
2023-02-14T23:30:01.027Z,3.40
2023-02-14T23:32:28.266Z,3.40
2023-02-14T23:34:54.986Z,3.40
2023-02-14T23:37:21.803Z,3.40
2023-02-14T23:39:48.579Z,3.40
2023-02-14T23:42:16.185Z,3.40
2023-02-14T23:44:44.498Z,3.30
2023-02-14T23:47:12.909Z,3.30
2023-02-14T23:49:40.948Z,3.30
2023-02-14T23:52:10.301Z,3.30
2023-02-14T23:54:37.915Z,3.30
2023-02-14T23:57:05.132Z,3.30
2023-02-14T23:59:31.814Z,3.20
